sensor_id;sensor_type;location;lat;lon;timestamp;pressure;altitude;pressure_sealevel;temperature;humidity
2036;BME280;23642;42.658;23.350;2022-07-25T00:00:08;55191.56;;;-146.31;70.23
2036;BME280;23642;42.658;23.350;2022-07-25T00:02:36;55181.25;;;-146.31;70.38
2036;BME280;23642;42.658;23.350;2022-07-25T00:05:03;55168.84;;;-146.31;70.77
2036;BME280;23642;42.658;23.350;2022-07-25T00:07:30;55183.31;;;-146.31;70.93
2036;BME280;23642;42.658;23.350;2022-07-25T00:09:58;55170.94;;;-146.31;70.49
2036;BME280;23642;42.658;23.350;2022-07-25T00:12:25;55179.19;;;-146.31;70.66
2036;BME280;23642;42.658;23.350;2022-07-25T00:14:52;55175.06;;;-146.31;70.13
2036;BME280;23642;42.658;23.350;2022-07-25T00:17:19;55162.66;;;-146.31;69.22
2036;BME280;23642;42.658;23.350;2022-07-25T00:19:46;55137.88;;;-146.31;69.05
2036;BME280;23642;42.658;23.350;2022-07-25T00:22:12;55148.22;;;-146.31;69.50
2036;BME280;23642;42.658;23.350;2022-07-25T00:24:39;55123.44;;;-146.31;69.46
2036;BME280;23642;42.658;23.350;2022-07-25T00:27:08;55129.63;;;-146.31;69.99
2036;BME280;23642;42.658;23.350;2022-07-25T00:29:34;55137.88;;;-146.31;69.93
2036;BME280;23642;42.658;23.350;2022-07-25T00:32:01;55135.81;;;-146.31;69.64
2036;BME280;23642;42.658;23.350;2022-07-25T00:34:28;55096.56;;;-146.31;69.95
2036;BME280;23642;42.658;23.350;2022-07-25T00:36:55;55123.44;;;-146.31;69.23
2036;BME280;23642;42.658;23.350;2022-07-25T00:39:22;55100.72;;;-146.31;70.03
2036;BME280;23642;42.658;23.350;2022-07-25T00:41:49;55106.91;;;-146.31;70.03
2036;BME280;23642;42.658;23.350;2022-07-25T00:44:24;55108.97;;;-146.31;69.90
2036;BME280;23642;42.658;23.350;2022-07-25T00:46:52;55082.13;;;-146.31;67.63
2036;BME280;23642;42.658;23.350;2022-07-25T00:49:19;55125.50;;;-146.31;68.88
2036;BME280;23642;42.658;23.350;2022-07-25T00:51:46;55100.72;;;-146.31;69.42
2036;BME280;23642;42.658;23.350;2022-07-25T00:54:13;55047.00;;;-146.31;69.69
2036;BME280;23642;42.658;23.350;2022-07-25T00:56:41;55063.53;;;-146.31;70.57
2036;BME280;23642;42.658;23.350;2022-07-25T00:59:08;55067.66;;;-146.31;71.40
2036;BME280;23642;42.658;23.350;2022-07-25T01:01:38;55053.22;;;-146.31;72.65
2036;BME280;23642;42.658;23.350;2022-07-25T01:04:05;55080.06;;;-146.31;72.59
2036;BME280;23642;42.658;23.350;2022-07-25T01:06:32;55053.22;;;-146.31;72.33
2036;BME280;23642;42.658;23.350;2022-07-25T01:09:00;55078.00;;;-146.31;72.67
2036;BME280;23642;42.658;23.350;2022-07-25T01:11:27;55013.97;;;-146.31;72.33
2036;BME280;23642;42.658;23.350;2022-07-25T01:13:54;55009.84;;;-146.31;72.99
2036;BME280;23642;42.658;23.350;2022-07-25T01:16:20;55038.75;;;-146.31;72.88
2036;BME280;23642;42.658;23.350;2022-07-25T01:18:49;55032.56;;;-146.31;72.58
2036;BME280;23642;42.658;23.350;2022-07-25T01:21:17;55036.69;;;-146.31;72.85
2036;BME280;23642;42.658;23.350;2022-07-25T01:23:43;55034.63;;;-146.31;73.36
2036;BME280;23642;42.658;23.350;2022-07-25T01:26:10;55026.34;;;-146.31;72.90
2036;BME280;23642;42.658;23.350;2022-07-25T01:28:37;55063.53;;;-146.31;72.67
2036;BME280;23642;42.658;23.350;2022-07-25T01:31:04;55028.44;;;-146.31;72.14
2036;BME280;23642;42.658;23.350;2022-07-25T01:33:31;55038.75;;;-146.31;72.37
2036;BME280;23642;42.658;23.350;2022-07-25T01:35:58;55020.16;;;-146.31;71.99
2036;BME280;23642;42.658;23.350;2022-07-25T01:38:26;55042.88;;;-146.31;71.88
2036;BME280;23642;42.658;23.350;2022-07-25T01:40:53;55042.88;;;-146.31;72.33
2036;BME280;23642;42.658;23.350;2022-07-25T01:43:20;55042.88;;;-146.31;72.08
2036;BME280;23642;42.658;23.350;2022-07-25T01:45:47;55028.44;;;-146.31;71.90
2036;BME280;23642;42.658;23.350;2022-07-25T01:48:14;55055.28;;;-146.31;71.47
2036;BME280;23642;42.658;23.350;2022-07-25T01:50:41;55013.97;;;-146.31;69.94
2036;BME280;23642;42.658;23.350;2022-07-25T01:53:07;55011.91;;;-146.31;71.47
2036;BME280;23642;42.658;23.350;2022-07-25T01:55:36;55011.91;;;-146.31;70.43
2036;BME280;23642;42.658;23.350;2022-07-25T01:58:04;54993.31;;;-146.31;69.25
2036;BME280;23642;42.658;23.350;2022-07-25T02:00:31;55001.56;;;-146.31;69.32
2036;BME280;23642;42.658;23.350;2022-07-25T02:02:58;55022.22;;;-146.31;70.32
2036;BME280;23642;42.658;23.350;2022-07-25T02:05:44;55013.97;;;-146.31;71.53
2036;BME280;23642;42.658;23.350;2022-07-25T02:08:11;55009.84;;;-146.31;71.95
2036;BME280;23642;42.658;23.350;2022-07-25T02:10:39;54989.19;;;-146.31;71.04
2036;BME280;23642;42.658;23.350;2022-07-25T02:13:06;55022.22;;;-146.31;71.89
2036;BME280;23642;42.658;23.350;2022-07-25T02:15:34;55053.22;;;-146.31;72.57
2036;BME280;23642;42.658;23.350;2022-07-25T02:18:01;55032.56;;;-146.31;72.81
2036;BME280;23642;42.658;23.350;2022-07-25T02:20:28;55026.34;;;-146.31;73.17
2036;BME280;23642;42.658;23.350;2022-07-25T02:22:54;55040.81;;;-146.31;74.03
2036;BME280;23642;42.658;23.350;2022-07-25T02:25:21;55011.91;;;-146.31;75.08
2036;BME280;23642;42.658;23.350;2022-07-25T02:27:49;55018.09;;;-146.31;74.98
2036;BME280;23642;42.658;23.350;2022-07-25T02:30:17;55013.97;;;-146.31;75.89
2036;BME280;23642;42.658;23.350;2022-07-25T02:32:44;54997.44;;;-146.31;76.75
2036;BME280;23642;42.658;23.350;2022-07-25T02:35:10;54966.47;;;-146.31;77.15
2036;BME280;23642;42.658;23.350;2022-07-25T02:37:37;54939.63;;;-146.31;77.36
2036;BME280;23642;42.658;23.350;2022-07-25T02:40:05;54927.22;;;-146.31;77.45
2036;BME280;23642;42.658;23.350;2022-07-25T02:42:32;54918.97;;;-146.31;76.72
2036;BME280;23642;42.658;23.350;2022-07-25T02:45:00;54929.28;;;-146.31;77.07
2036;BME280;23642;42.658;23.350;2022-07-25T02:47:27;54906.56;;;-146.31;77.67
2036;BME280;23642;42.658;23.350;2022-07-25T02:49:54;54923.09;;;-146.31;77.49
2036;BME280;23642;42.658;23.350;2022-07-25T02:52:21;54914.84;;;-146.31;78.00
2036;BME280;23642;42.658;23.350;2022-07-25T02:54:47;54931.38;;;-146.31;78.27
2036;BME280;23642;42.658;23.350;2022-07-25T02:57:15;54885.94;;;-146.31;78.34
2036;BME280;23642;42.658;23.350;2022-07-25T02:59:42;54898.31;;;-146.31;78.79
2036;BME280;23642;42.658;23.350;2022-07-25T03:02:10;54873.53;;;-146.31;79.55
2036;BME280;23642;42.658;23.350;2022-07-25T03:04:37;54857.03;;;-146.31;80.07
2036;BME280;23642;42.658;23.350;2022-07-25T03:07:03;54807.47;;;-146.31;80.06
2036;BME280;23642;42.658;23.350;2022-07-25T03:09:30;54803.31;;;-146.31;79.94
2036;BME280;23642;42.658;23.350;2022-07-25T03:11:57;54768.22;;;-146.31;78.81
2036;BME280;23642;42.658;23.350;2022-07-25T03:14:25;54770.28;;;-146.31;76.70
2036;BME280;23642;42.658;23.350;2022-07-25T03:16:52;54772.34;;;-146.31;77.07
2036;BME280;23642;42.658;23.350;2022-07-25T03:19:20;54786.81;;;-146.31;78.18
2036;BME280;23642;42.658;23.350;2022-07-25T03:21:47;54809.53;;;-146.31;75.92
2036;BME280;23642;42.658;23.350;2022-07-25T03:24:14;54846.69;;;-146.31;73.42
2036;BME280;23642;42.658;23.350;2022-07-25T03:26:41;54848.75;;;-146.31;73.27
2036;BME280;23642;42.658;23.350;2022-07-25T03:29:07;54857.03;;;-146.31;72.55
2036;BME280;23642;42.658;23.350;2022-07-25T03:31:34;54898.31;;;-146.31;72.32
2036;BME280;23642;42.658;23.350;2022-07-25T03:34:01;54852.88;;;-146.31;71.38
2036;BME280;23642;42.658;23.350;2022-07-25T03:36:29;54883.88;;;-146.31;71.23
2036;BME280;23642;42.658;23.350;2022-07-25T03:38:56;54910.72;;;-146.31;69.97
2036;BME280;23642;42.658;23.350;2022-07-25T03:41:22;54890.06;;;-146.31;69.17
2036;BME280;23642;42.658;23.350;2022-07-25T03:43:49;54904.50;;;-146.31;67.98
2036;BME280;23642;42.658;23.350;2022-07-25T03:46:16;54916.91;;;-146.31;67.83
2036;BME280;23642;42.658;23.350;2022-07-25T03:48:43;54910.72;;;-146.31;67.25
2036;BME280;23642;42.658;23.350;2022-07-25T03:51:10;54910.72;;;-146.31;66.98
2036;BME280;23642;42.658;23.350;2022-07-25T03:53:38;54939.63;;;-146.31;66.53
2036;BME280;23642;42.658;23.350;2022-07-25T03:56:19;54954.06;;;-146.31;65.75
2036;BME280;23642;42.658;23.350;2022-07-25T03:58:46;54927.22;;;-146.31;64.85
2036;BME280;23642;42.658;23.350;2022-07-25T04:01:13;54947.88;;;-146.31;64.93
2036;BME280;23642;42.658;23.350;2022-07-25T04:03:39;54941.69;;;-146.31;64.61
2036;BME280;23642;42.658;23.350;2022-07-25T04:06:09;54945.81;;;-146.31;64.30
2036;BME280;23642;42.658;23.350;2022-07-25T04:08:37;54964.41;;;-146.31;64.01
2036;BME280;23642;42.658;23.350;2022-07-25T04:11:04;54927.22;;;-146.31;63.49
2036;BME280;23642;42.658;23.350;2022-07-25T04:13:31;54960.28;;;-146.31;63.50
2036;BME280;23642;42.658;23.350;2022-07-25T04:15:58;54956.16;;;-146.31;62.83
2036;BME280;23642;42.658;23.350;2022-07-25T04:18:25;54958.22;;;-146.31;62.83
2036;BME280;23642;42.658;23.350;2022-07-25T04:20:51;54947.88;;;-146.31;62.73
2036;BME280;23642;42.658;23.350;2022-07-25T04:23:18;54947.88;;;-146.31;62.88
2036;BME280;23642;42.658;23.350;2022-07-25T04:25:46;54949.94;;;-146.31;62.08
2036;BME280;23642;42.658;23.350;2022-07-25T04:28:13;54958.22;;;-146.31;61.35
2036;BME280;23642;42.658;23.350;2022-07-25T04:30:40;54939.63;;;-146.31;61.42
2036;BME280;23642;42.658;23.350;2022-07-25T04:33:09;54954.06;;;-146.31;60.73
2036;BME280;23642;42.658;23.350;2022-07-25T04:35:37;54952.00;;;-146.31;60.25
2036;BME280;23642;42.658;23.350;2022-07-25T04:38:04;54972.66;;;-146.31;60.07
2036;BME280;23642;42.658;23.350;2022-07-25T04:40:30;54952.00;;;-146.31;60.07
2036;BME280;23642;42.658;23.350;2022-07-25T04:42:59;54956.16;;;-146.31;60.11
2036;BME280;23642;42.658;23.350;2022-07-25T04:45:26;54960.28;;;-146.31;59.74
2036;BME280;23642;42.658;23.350;2022-07-25T04:47:53;54966.47;;;-146.31;59.16
2036;BME280;23642;42.658;23.350;2022-07-25T04:50:20;54960.28;;;-146.31;59.28
2036;BME280;23642;42.658;23.350;2022-07-25T04:52:47;54978.84;;;-146.31;59.12
2036;BME280;23642;42.658;23.350;2022-07-25T04:55:13;54939.63;;;-146.31;58.87
2036;BME280;23642;42.658;23.350;2022-07-25T04:57:40;54970.59;;;-146.31;58.81
2036;BME280;23642;42.658;23.350;2022-07-25T05:00:10;54943.75;;;-146.31;58.81
2036;BME280;23642;42.658;23.350;2022-07-25T05:02:37;54966.47;;;-146.31;58.62
2036;BME280;23642;42.658;23.350;2022-07-25T05:05:04;54962.34;;;-146.31;58.61
2036;BME280;23642;42.658;23.350;2022-07-25T05:07:32;54952.00;;;-146.31;57.91
2036;BME280;23642;42.658;23.350;2022-07-25T05:09:59;54927.22;;;-146.31;57.91
2036;BME280;23642;42.658;23.350;2022-07-25T05:12:26;54918.97;;;-146.31;57.25
2036;BME280;23642;42.658;23.350;2022-07-25T05:14:53;54929.28;;;-146.31;56.74
2036;BME280;23642;42.658;23.350;2022-07-25T05:17:21;54966.47;;;-146.31;56.45
2036;BME280;23642;42.658;23.350;2022-07-25T05:19:48;54933.44;;;-146.31;56.45
2036;BME280;23642;42.658;23.350;2022-07-25T05:22:15;54910.72;;;-146.31;56.13
2036;BME280;23642;42.658;23.350;2022-07-25T05:24:42;54914.84;;;-146.31;55.77
2036;BME280;23642;42.658;23.350;2022-07-25T05:27:08;54873.53;;;-146.31;55.29
2036;BME280;23642;42.658;23.350;2022-07-25T05:29:35;54877.66;;;-146.31;55.49
2036;BME280;23642;42.658;23.350;2022-07-25T05:32:02;54902.44;;;-146.31;55.18
2036;BME280;23642;42.658;23.350;2022-07-25T05:34:31;54879.72;;;-146.31;54.91
2036;BME280;23642;42.658;23.350;2022-07-25T05:36:58;54873.53;;;-146.31;54.83
2036;BME280;23642;42.658;23.350;2022-07-25T05:39:25;54892.13;;;-146.31;54.78
2036;BME280;23642;42.658;23.350;2022-07-25T05:41:54;54885.94;;;-146.31;54.65
2036;BME280;23642;42.658;23.350;2022-07-25T05:44:20;54890.06;;;-146.31;54.89
2036;BME280;23642;42.658;23.350;2022-07-25T05:46:47;54857.03;;;-146.31;54.56
2036;BME280;23642;42.658;23.350;2022-07-25T05:49:14;54867.34;;;-146.31;54.07
2036;BME280;23642;42.658;23.350;2022-07-25T05:51:42;54842.56;;;-146.31;54.31
2036;BME280;23642;42.658;23.350;2022-07-25T05:54:09;54840.50;;;-146.31;53.36
2036;BME280;23642;42.658;23.350;2022-07-25T05:56:36;54836.38;;;-146.31;53.26
2036;BME280;23642;42.658;23.350;2022-07-25T05:59:03;54834.31;;;-146.31;53.23
2036;BME280;23642;42.658;23.350;2022-07-25T06:01:33;54848.75;;;-146.31;53.41
2036;BME280;23642;42.658;23.350;2022-07-25T06:03:59;54828.09;;;-146.31;53.04
2036;BME280;23642;42.658;23.350;2022-07-25T06:06:26;54803.31;;;-146.31;53.58
2036;BME280;23642;42.658;23.350;2022-07-25T06:08:58;54803.31;;;-146.31;52.96
2036;BME280;23642;42.658;23.350;2022-07-25T06:11:25;54807.47;;;-146.31;52.86
2036;BME280;23642;42.658;23.350;2022-07-25T06:13:52;54819.84;;;-146.31;53.19
2036;BME280;23642;42.658;23.350;2022-07-25T06:16:19;54854.94;;;-146.31;52.71
2036;BME280;23642;42.658;23.350;2022-07-25T06:18:46;54852.88;;;-146.31;53.22
2036;BME280;23642;42.658;23.350;2022-07-25T06:21:13;54836.38;;;-146.31;53.71
2036;BME280;23642;42.658;23.350;2022-07-25T06:23:40;54823.97;;;-146.31;52.61
2036;BME280;23642;42.658;23.350;2022-07-25T06:26:10;54840.50;;;-146.31;52.32
2036;BME280;23642;42.658;23.350;2022-07-25T06:28:37;54840.50;;;-146.31;52.74
2036;BME280;23642;42.658;23.350;2022-07-25T06:31:04;54828.09;;;-146.31;52.11
2036;BME280;23642;42.658;23.350;2022-07-25T06:33:31;54865.28;;;-146.31;52.51
2036;BME280;23642;42.658;23.350;2022-07-25T06:36:00;54848.75;;;-146.31;53.13
2036;BME280;23642;42.658;23.350;2022-07-25T06:38:30;54823.97;;;-146.31;52.35
2036;BME280;23642;42.658;23.350;2022-07-25T06:40:57;54879.72;;;-146.31;52.08
2036;BME280;23642;42.658;23.350;2022-07-25T06:43:25;54854.94;;;-146.31;52.16
2036;BME280;23642;42.658;23.350;2022-07-25T06:45:52;54871.47;;;-146.31;51.52
2036;BME280;23642;42.658;23.350;2022-07-25T06:48:19;54896.25;;;-146.31;51.56
2036;BME280;23642;42.658;23.350;2022-07-25T06:50:47;54947.88;;;-146.31;51.37
2036;BME280;23642;42.658;23.350;2022-07-25T06:53:14;54896.25;;;-146.31;51.64
2036;BME280;23642;42.658;23.350;2022-07-25T06:55:41;54902.44;;;-146.31;51.86
2036;BME280;23642;42.658;23.350;2022-07-25T06:58:08;54954.06;;;-146.31;51.14
2036;BME280;23642;42.658;23.350;2022-07-25T07:00:38;54925.16;;;-146.31;51.48
2036;BME280;23642;42.658;23.350;2022-07-25T07:03:07;54910.72;;;-146.31;50.62
2036;BME280;23642;42.658;23.350;2022-07-25T07:05:34;54929.28;;;-146.31;50.60
2036;BME280;23642;42.658;23.350;2022-07-25T07:08:02;54914.84;;;-146.31;50.81
2036;BME280;23642;42.658;23.350;2022-07-25T07:10:29;54904.50;;;-146.31;49.99
2036;BME280;23642;42.658;23.350;2022-07-25T07:13:09;54941.69;;;-146.31;50.06
2036;BME280;23642;42.658;23.350;2022-07-25T07:15:38;54935.50;;;-146.31;49.69
2036;BME280;23642;42.658;23.350;2022-07-25T07:18:05;54939.63;;;-146.31;49.18
2036;BME280;23642;42.658;23.350;2022-07-25T07:20:32;54943.75;;;-146.31;48.69
2036;BME280;23642;42.658;23.350;2022-07-25T07:23:01;54987.13;;;-146.31;48.91
2036;BME280;23642;42.658;23.350;2022-07-25T07:25:28;54995.38;;;-146.31;49.25
2036;BME280;23642;42.658;23.350;2022-07-25T07:27:57;54995.38;;;-146.31;48.83
2036;BME280;23642;42.658;23.350;2022-07-25T07:30:24;55013.97;;;-146.31;48.03
2036;BME280;23642;42.658;23.350;2022-07-25T07:32:54;54999.50;;;-146.31;47.86
2036;BME280;23642;42.658;23.350;2022-07-25T07:35:21;55030.50;;;-146.31;48.12
2036;BME280;23642;42.658;23.350;2022-07-25T07:37:50;55028.44;;;-146.31;48.04
2036;BME280;23642;42.658;23.350;2022-07-25T07:40:19;55022.22;;;-146.31;47.76
2036;BME280;23642;42.658;23.350;2022-07-25T07:42:54;54987.13;;;-146.31;47.43
2036;BME280;23642;42.658;23.350;2022-07-25T07:45:23;55005.72;;;-146.31;48.09
2036;BME280;23642;42.658;23.350;2022-07-25T07:47:53;55001.56;;;-146.31;47.04
2036;BME280;23642;42.658;23.350;2022-07-25T07:50:22;55051.13;;;-146.31;47.24
2036;BME280;23642;42.658;23.350;2022-07-25T07:52:57;55059.41;;;-146.31;47.19
2036;BME280;23642;42.658;23.350;2022-07-25T07:55:36;54989.19;;;-146.31;46.43
2036;BME280;23642;42.658;23.350;2022-07-25T07:58:13;55018.09;;;-146.31;46.27
2036;BME280;23642;42.658;23.350;2022-07-25T08:00:41;54966.47;;;-146.31;45.28
2036;BME280;23642;42.658;23.350;2022-07-25T08:03:10;54952.00;;;-146.31;44.52
2036;BME280;23642;42.658;23.350;2022-07-25T08:05:38;55038.75;;;-146.31;44.54
2036;BME280;23642;42.658;23.350;2022-07-25T08:08:07;55102.78;;;-146.31;44.21
2036;BME280;23642;42.658;23.350;2022-07-25T08:10:42;55086.25;;;-146.31;43.45
2036;BME280;23642;42.658;23.350;2022-07-25T08:13:13;55059.41;;;-146.31;42.62
2036;BME280;23642;42.658;23.350;2022-07-25T08:15:41;55059.41;;;-146.31;43.55
2036;BME280;23642;42.658;23.350;2022-07-25T08:18:09;55005.72;;;-146.31;43.71
2036;BME280;23642;42.658;23.350;2022-07-25T08:20:40;55057.34;;;-146.31;43.79
2036;BME280;23642;42.658;23.350;2022-07-25T08:23:07;55061.47;;;-146.31;43.60
2036;BME280;23642;42.658;23.350;2022-07-25T08:25:35;55051.13;;;-146.31;43.76
2036;BME280;23642;42.658;23.350;2022-07-25T08:28:03;55022.22;;;-146.31;43.49
2036;BME280;23642;42.658;23.350;2022-07-25T08:30:31;54954.06;;;-146.31;42.42
2036;BME280;23642;42.658;23.350;2022-07-25T08:33:00;55016.03;;;-146.31;42.69
2036;BME280;23642;42.658;23.350;2022-07-25T08:35:31;55036.69;;;-146.31;41.84
2036;BME280;23642;42.658;23.350;2022-07-25T08:37:59;55092.44;;;-146.31;41.99
2036;BME280;23642;42.658;23.350;2022-07-25T08:40:27;55096.56;;;-146.31;42.46
2036;BME280;23642;42.658;23.350;2022-07-25T08:42:54;55113.09;;;-146.31;42.39
2036;BME280;23642;42.658;23.350;2022-07-25T08:45:23;55113.09;;;-146.31;42.64
2036;BME280;23642;42.658;23.350;2022-07-25T08:47:51;55034.63;;;-146.31;43.14
2036;BME280;23642;42.658;23.350;2022-07-25T08:50:25;55075.91;;;-146.31;42.05
2036;BME280;23642;42.658;23.350;2022-07-25T08:53:00;55063.53;;;-146.31;42.09
2036;BME280;23642;42.658;23.350;2022-07-25T08:55:33;55073.84;;;-146.31;41.66
2036;BME280;23642;42.658;23.350;2022-07-25T08:58:00;55044.94;;;-146.31;41.77
2036;BME280;23642;42.658;23.350;2022-07-25T09:00:28;55018.09;;;-146.31;41.66
2036;BME280;23642;42.658;23.350;2022-07-25T09:02:57;54943.75;;;-146.31;41.91
2036;BME280;23642;42.658;23.350;2022-07-25T09:05:26;54989.19;;;-146.31;40.97
2036;BME280;23642;42.658;23.350;2022-07-25T09:08:13;55018.09;;;-146.31;41.16
2036;BME280;23642;42.658;23.350;2022-07-25T09:10:45;55075.91;;;-146.31;41.59
2036;BME280;23642;42.658;23.350;2022-07-25T09:13:13;54991.25;;;-146.31;40.68
2036;BME280;23642;42.658;23.350;2022-07-25T09:15:45;54989.19;;;-146.31;40.80
2036;BME280;23642;42.658;23.350;2022-07-25T09:18:17;54999.50;;;-146.31;40.95
2036;BME280;23642;42.658;23.350;2022-07-25T09:20:46;55028.44;;;-146.31;41.29
2036;BME280;23642;42.658;23.350;2022-07-25T09:23:26;54964.41;;;-146.31;41.30
2036;BME280;23642;42.658;23.350;2022-07-25T09:26:01;55047.00;;;-146.31;40.56
2036;BME280;23642;42.658;23.350;2022-07-25T09:28:28;55001.56;;;-146.31;40.54
2036;BME280;23642;42.658;23.350;2022-07-25T09:30:56;55051.13;;;-146.31;40.05
2036;BME280;23642;42.658;23.350;2022-07-25T09:33:24;55030.50;;;-146.31;39.40
2036;BME280;23642;42.658;23.350;2022-07-25T09:35:52;54995.38;;;-146.31;38.94
2036;BME280;23642;42.658;23.350;2022-07-25T09:38:22;54935.50;;;-146.31;38.54
2036;BME280;23642;42.658;23.350;2022-07-25T09:40:53;54947.88;;;-146.31;38.10
2036;BME280;23642;42.658;23.350;2022-07-25T09:43:21;54923.09;;;-146.31;37.97
2036;BME280;23642;42.658;23.350;2022-07-25T09:45:48;54916.91;;;-146.31;38.42
2036;BME280;23642;42.658;23.350;2022-07-25T09:48:17;54935.50;;;-146.31;38.04
2036;BME280;23642;42.658;23.350;2022-07-25T09:50:44;55053.22;;;-146.31;38.76
2036;BME280;23642;42.658;23.350;2022-07-25T09:53:11;54972.66;;;-146.31;38.15
2036;BME280;23642;42.658;23.350;2022-07-25T09:55:40;54923.09;;;-146.31;37.16
2036;BME280;23642;42.658;23.350;2022-07-25T09:58:07;54964.41;;;-146.31;36.97
2036;BME280;23642;42.658;23.350;2022-07-25T10:00:34;54989.19;;;-146.31;37.42
2036;BME280;23642;42.658;23.350;2022-07-25T10:03:16;55042.88;;;-146.31;37.85
2036;BME280;23642;42.658;23.350;2022-07-25T10:06:05;55094.50;;;-146.31;37.65
2036;BME280;23642;42.658;23.350;2022-07-25T10:08:35;55148.22;;;-146.31;37.20
2036;BME280;23642;42.658;23.350;2022-07-25T10:11:04;55164.72;;;-146.31;36.42
2036;BME280;23642;42.658;23.350;2022-07-25T10:13:34;55152.34;;;-146.31;36.03
2036;BME280;23642;42.658;23.350;2022-07-25T10:16:14;55088.31;;;-146.31;36.12
2036;BME280;23642;42.658;23.350;2022-07-25T10:18:47;55094.50;;;-146.31;35.56
2036;BME280;23642;42.658;23.350;2022-07-25T10:21:14;55092.44;;;-146.31;35.17
2036;BME280;23642;42.658;23.350;2022-07-25T10:23:41;55036.69;;;-146.31;34.77
2036;BME280;23642;42.658;23.350;2022-07-25T10:26:13;55018.09;;;-146.31;34.15
2036;BME280;23642;42.658;23.350;2022-07-25T10:28:47;54978.84;;;-146.31;34.58
2036;BME280;23642;42.658;23.350;2022-07-25T10:31:25;55121.34;;;-146.31;36.72
2036;BME280;23642;42.658;23.350;2022-07-25T10:33:55;55063.53;;;-146.31;36.66
2036;BME280;23642;42.658;23.350;2022-07-25T10:36:25;55104.84;;;-146.31;37.06
2036;BME280;23642;42.658;23.350;2022-07-25T10:38:56;55082.13;;;-146.31;37.04
2036;BME280;23642;42.658;23.350;2022-07-25T10:41:27;55049.06;;;-146.31;36.28
2036;BME280;23642;42.658;23.350;2022-07-25T10:43:59;55011.91;;;-146.31;35.50
2036;BME280;23642;42.658;23.350;2022-07-25T10:46:33;55146.13;;;-146.31;35.14
2036;BME280;23642;42.658;23.350;2022-07-25T10:49:20;55183.31;;;-146.31;34.97
2036;BME280;23642;42.658;23.350;2022-07-25T10:51:54;55160.59;;;-146.31;34.32
2036;BME280;23642;42.658;23.350;2022-07-25T10:54:31;55104.84;;;-146.31;34.44
2036;BME280;23642;42.658;23.350;2022-07-25T10:57:14;55082.13;;;-146.31;34.14
2036;BME280;23642;42.658;23.350;2022-07-25T10:59:41;55053.22;;;-146.31;33.33
2036;BME280;23642;42.658;23.350;2022-07-25T11:02:10;55061.47;;;-146.31;33.58
2036;BME280;23642;42.658;23.350;2022-07-25T11:04:41;55142.00;;;-146.31;33.80
2036;BME280;23642;42.658;23.350;2022-07-25T11:07:10;55197.78;;;-146.31;34.06
2036;BME280;23642;42.658;23.350;2022-07-25T11:09:38;55195.72;;;-146.31;33.01
2036;BME280;23642;42.658;23.350;2022-07-25T11:12:06;55179.19;;;-146.31;34.04
2036;BME280;23642;42.658;23.350;2022-07-25T11:17:24;55158.53;;;-146.31;33.02
2036;BME280;23642;42.658;23.350;2022-07-25T11:19:58;55108.97;;;-146.31;32.46
2036;BME280;23642;42.658;23.350;2022-07-25T11:22:39;55108.97;;;-146.31;31.89
2036;BME280;23642;42.658;23.350;2022-07-25T11:25:10;55069.72;;;-146.31;31.77
2036;BME280;23642;42.658;23.350;2022-07-25T11:27:38;55071.78;;;-146.31;32.29
2036;BME280;23642;42.658;23.350;2022-07-25T11:30:08;55183.31;;;-146.31;32.14
2036;BME280;23642;42.658;23.350;2022-07-25T11:32:38;55131.69;;;-146.31;32.67
2036;BME280;23642;42.658;23.350;2022-07-25T11:35:08;55152.34;;;-146.31;32.67
2036;BME280;23642;42.658;23.350;2022-07-25T11:37:38;55185.38;;;-146.31;32.92
2036;BME280;23642;42.658;23.350;2022-07-25T11:40:06;55150.28;;;-146.31;33.27
2036;BME280;23642;42.658;23.350;2022-07-25T11:42:39;55154.41;;;-146.31;32.89
2036;BME280;23642;42.658;23.350;2022-07-25T11:45:17;55123.44;;;-146.31;32.46
2036;BME280;23642;42.658;23.350;2022-07-25T11:47:44;55098.63;;;-146.31;32.40
2036;BME280;23642;42.658;23.350;2022-07-25T11:50:14;55127.56;;;-146.31;32.41
2036;BME280;23642;42.658;23.350;2022-07-25T11:52:42;55121.34;;;-146.31;32.48
2036;BME280;23642;42.658;23.350;2022-07-25T11:55:15;55193.66;;;-146.31;31.93
2036;BME280;23642;42.658;23.350;2022-07-25T11:57:44;55144.06;;;-146.31;32.14
2036;BME280;23642;42.658;23.350;2022-07-25T12:00:19;55148.22;;;-146.31;32.56
2036;BME280;23642;42.658;23.350;2022-07-25T12:02:47;55154.41;;;-146.31;32.14
2036;BME280;23642;42.658;23.350;2022-07-25T12:05:17;55121.34;;;-146.31;32.41
2036;BME280;23642;42.658;23.350;2022-07-25T12:07:45;55119.28;;;-146.31;32.49
2036;BME280;23642;42.658;23.350;2022-07-25T12:10:14;55158.53;;;-146.31;31.68
2036;BME280;23642;42.658;23.350;2022-07-25T12:12:47;55084.19;;;-146.31;32.33
2036;BME280;23642;42.658;23.350;2022-07-25T12:15:15;55059.41;;;-146.31;31.62
2036;BME280;23642;42.658;23.350;2022-07-25T12:17:44;55067.66;;;-146.31;31.47
2036;BME280;23642;42.658;23.350;2022-07-25T12:20:15;55121.34;;;-146.31;31.77
2036;BME280;23642;42.658;23.350;2022-07-25T12:22:43;55139.94;;;-146.31;32.11
2036;BME280;23642;42.658;23.350;2022-07-25T12:25:11;55125.50;;;-146.31;32.34
2036;BME280;23642;42.658;23.350;2022-07-25T12:27:38;55131.69;;;-146.31;32.24
2036;BME280;23642;42.658;23.350;2022-07-25T12:30:08;55071.78;;;-146.31;32.30
2036;BME280;23642;42.658;23.350;2022-07-25T12:32:35;55067.66;;;-146.31;32.62
2036;BME280;23642;42.658;23.350;2022-07-25T12:35:07;55133.75;;;-146.31;32.69
2036;BME280;23642;42.658;23.350;2022-07-25T12:37:35;55199.84;;;-146.31;33.71
2036;BME280;23642;42.658;23.350;2022-07-25T12:40:03;55170.94;;;-146.31;33.08
2036;BME280;23642;42.658;23.350;2022-07-25T12:42:30;55212.22;;;-146.31;33.22
2036;BME280;23642;42.658;23.350;2022-07-25T12:44:57;55216.34;;;-146.31;33.59
2036;BME280;23642;42.658;23.350;2022-07-25T12:47:24;55195.72;;;-146.31;34.20
2036;BME280;23642;42.658;23.350;2022-07-25T12:49:51;55228.75;;;-146.31;34.20